sensor_id;sensor_type;location;lat;lon;timestamp;P1;durP1;ratioP1;P2;durP2;ratioP2
11498;SDS011;5806;48.748;9.278;2023-01-09T00:00:58;1.17;;;0.60;;
11498;SDS011;5806;48.748;9.278;2023-01-09T00:03:25;1.00;;;0.80;;
11498;SDS011;5806;48.748;9.278;2023-01-09T00:05:53;1.90;;;0.80;;
11498;SDS011;5806;48.748;9.278;2023-01-09T00:08:20;1.27;;;0.47;;
11498;SDS011;5806;48.748;9.278;2023-01-09T00:10:48;0.50;;;0.40;;
11498;SDS011;5806;48.748;9.278;2023-01-09T00:13:15;0.97;;;0.60;;
11498;SDS011;5806;48.748;9.278;2023-01-09T00:15:43;0.93;;;0.63;;
11498;SDS011;5806;48.748;9.278;2023-01-09T00:18:11;1.33;;;0.60;;
11498;SDS011;5806;48.748;9.278;2023-01-09T00:20:38;2.20;;;0.70;;
11498;SDS011;5806;48.748;9.278;2023-01-09T00:23:06;1.50;;;0.40;;
11498;SDS011;5806;48.748;9.278;2023-01-09T00:25:33;0.77;;;0.50;;
11498;SDS011;5806;48.748;9.278;2023-01-09T00:28:01;1.40;;;0.67;;
11498;SDS011;5806;48.748;9.278;2023-01-09T00:30:28;1.07;;;0.40;;
11498;SDS011;5806;48.748;9.278;2023-01-09T00:32:56;0.60;;;0.27;;
11498;SDS011;5806;48.748;9.278;2023-01-09T00:35:24;0.30;;;0.30;;
11498;SDS011;5806;48.748;9.278;2023-01-09T00:37:53;2.77;;;0.40;;
11498;SDS011;5806;48.748;9.278;2023-01-09T00:40:21;3.03;;;0.40;;
11498;SDS011;5806;48.748;9.278;2023-01-09T00:42:49;1.60;;;0.50;;
11498;SDS011;5806;48.748;9.278;2023-01-09T00:45:20;1.37;;;0.40;;
11498;SDS011;5806;48.748;9.278;2023-01-09T00:47:53;1.07;;;0.50;;
11498;SDS011;5806;48.748;9.278;2023-01-09T00:50:25;2.20;;;0.50;;
11498;SDS011;5806;48.748;9.278;2023-01-09T00:52:55;0.63;;;0.30;;
11498;SDS011;5806;48.748;9.278;2023-01-09T00:55:24;1.57;;;0.40;;
11498;SDS011;5806;48.748;9.278;2023-01-09T00:57:52;0.73;;;0.40;;
11498;SDS011;5806;48.748;9.278;2023-01-09T01:00:21;0.80;;;0.40;;
11498;SDS011;5806;48.748;9.278;2023-01-09T01:02:48;0.67;;;0.33;;
11498;SDS011;5806;48.748;9.278;2023-01-09T01:05:16;0.50;;;0.20;;
11498;SDS011;5806;48.748;9.278;2023-01-09T01:08:01;1.80;;;0.40;;
11498;SDS011;5806;48.748;9.278;2023-01-09T01:10:30;2.40;;;0.40;;
11498;SDS011;5806;48.748;9.278;2023-01-09T01:12:58;0.70;;;0.30;;
11498;SDS011;5806;48.748;9.278;2023-01-09T01:15:25;0.20;;;0.13;;
11498;SDS011;5806;48.748;9.278;2023-01-09T01:17:53;0.83;;;0.20;;
11498;SDS011;5806;48.748;9.278;2023-01-09T01:20:21;0.57;;;0.20;;
11498;SDS011;5806;48.748;9.278;2023-01-09T01:22:48;0.10;;;0.10;;
11498;SDS011;5806;48.748;9.278;2023-01-09T01:25:16;0.50;;;0.20;;
11498;SDS011;5806;48.748;9.278;2023-01-09T01:27:44;0.10;;;0.10;;
11498;SDS011;5806;48.748;9.278;2023-01-09T01:30:12;0.23;;;0.20;;
11498;SDS011;5806;48.748;9.278;2023-01-09T01:32:41;0.20;;;0.20;;
11498;SDS011;5806;48.748;9.278;2023-01-09T01:35:09;0.40;;;0.30;;
11498;SDS011;5806;48.748;9.278;2023-01-09T01:37:37;0.77;;;0.20;;
11498;SDS011;5806;48.748;9.278;2023-01-09T01:40:06;0.30;;;0.10;;
11498;SDS011;5806;48.748;9.278;2023-01-09T01:42:35;0.23;;;0.23;;
11498;SDS011;5806;48.748;9.278;2023-01-09T01:45:07;0.23;;;0.23;;
11498;SDS011;5806;48.748;9.278;2023-01-09T01:50:49;0.20;;;0.20;;
11498;SDS011;5806;48.748;9.278;2023-01-09T01:53:34;0.30;;;0.30;;
11498;SDS011;5806;48.748;9.278;2023-01-09T01:56:11;0.20;;;0.20;;
11498;SDS011;5806;48.748;9.278;2023-01-09T01:58:51;0.20;;;0.10;;
11498;SDS011;5806;48.748;9.278;2023-01-09T02:01:20;0.23;;;0.17;;
11498;SDS011;5806;48.748;9.278;2023-01-09T02:03:50;0.50;;;0.40;;
11498;SDS011;5806;48.748;9.278;2023-01-09T02:06:19;1.27;;;0.30;;
11498;SDS011;5806;48.748;9.278;2023-01-09T02:08:47;0.50;;;0.20;;
11498;SDS011;5806;48.748;9.278;2023-01-09T02:11:16;1.03;;;0.30;;
11498;SDS011;5806;48.748;9.278;2023-01-09T02:13:45;0.27;;;0.20;;
11498;SDS011;5806;48.748;9.278;2023-01-09T02:16:21;0.40;;;0.20;;
11498;SDS011;5806;48.748;9.278;2023-01-09T02:21:44;0.43;;;0.20;;
11498;SDS011;5806;48.748;9.278;2023-01-09T02:24:18;0.60;;;0.30;;
11498;SDS011;5806;48.748;9.278;2023-01-09T02:27:02;0.50;;;0.30;;
11498;SDS011;5806;48.748;9.278;2023-01-09T02:29:40;1.60;;;0.40;;
11498;SDS011;5806;48.748;9.278;2023-01-09T02:32:06;0.20;;;0.20;;
11498;SDS011;5806;48.748;9.278;2023-01-09T02:37:43;0.43;;;0.40;;
11498;SDS011;5806;48.748;9.278;2023-01-09T02:42:43;0.60;;;0.40;;
11498;SDS011;5806;48.748;9.278;2023-01-09T02:45:12;0.20;;;0.20;;
11498;SDS011;5806;48.748;9.278;2023-01-09T02:47:41;0.33;;;0.33;;
11498;SDS011;5806;48.748;9.278;2023-01-09T02:50:15;0.57;;;0.30;;
11498;SDS011;5806;48.748;9.278;2023-01-09T03:04:07;0.73;;;0.40;;
11498;SDS011;5806;48.748;9.278;2023-01-09T03:06:37;0.53;;;0.30;;
11498;SDS011;5806;48.748;9.278;2023-01-09T03:09:21;1.47;;;0.33;;
11498;SDS011;5806;48.748;9.278;2023-01-09T03:11:54;1.67;;;0.40;;
11498;SDS011;5806;48.748;9.278;2023-01-09T03:14:31;0.90;;;0.40;;
11498;SDS011;5806;48.748;9.278;2023-01-09T03:17:01;0.60;;;0.40;;
11498;SDS011;5806;48.748;9.278;2023-01-09T03:19:31;0.47;;;0.40;;
11498;SDS011;5806;48.748;9.278;2023-01-09T03:22:00;1.47;;;0.50;;
11498;SDS011;5806;48.748;9.278;2023-01-09T03:24:28;0.50;;;0.40;;
11498;SDS011;5806;48.748;9.278;2023-01-09T03:26:55;1.43;;;0.40;;
11498;SDS011;5806;48.748;9.278;2023-01-09T03:29:23;2.03;;;0.40;;
11498;SDS011;5806;48.748;9.278;2023-01-09T03:31:50;0.73;;;0.37;;
11498;SDS011;5806;48.748;9.278;2023-01-09T03:34:17;0.80;;;0.30;;
11498;SDS011;5806;48.748;9.278;2023-01-09T03:36:45;1.67;;;0.40;;
11498;SDS011;5806;48.748;9.278;2023-01-09T03:39:12;0.40;;;0.40;;
11498;SDS011;5806;48.748;9.278;2023-01-09T03:41:40;1.53;;;0.40;;
11498;SDS011;5806;48.748;9.278;2023-01-09T03:44:07;0.60;;;0.50;;
11498;SDS011;5806;48.748;9.278;2023-01-09T03:46:34;2.37;;;0.60;;
11498;SDS011;5806;48.748;9.278;2023-01-09T03:49:02;0.67;;;0.60;;
11498;SDS011;5806;48.748;9.278;2023-01-09T03:51:29;1.00;;;0.40;;
11498;SDS011;5806;48.748;9.278;2023-01-09T03:53:57;2.00;;;0.60;;
11498;SDS011;5806;48.748;9.278;2023-01-09T03:56:24;0.60;;;0.30;;
11498;SDS011;5806;48.748;9.278;2023-01-09T03:58:51;2.70;;;0.60;;
11498;SDS011;5806;48.748;9.278;2023-01-09T04:01:19;1.47;;;0.60;;
11498;SDS011;5806;48.748;9.278;2023-01-09T04:03:46;1.83;;;0.60;;
11498;SDS011;5806;48.748;9.278;2023-01-09T04:06:14;0.93;;;0.50;;
11498;SDS011;5806;48.748;9.278;2023-01-09T04:08:41;1.43;;;0.60;;
11498;SDS011;5806;48.748;9.278;2023-01-09T04:11:10;0.40;;;0.40;;
11498;SDS011;5806;48.748;9.278;2023-01-09T04:13:37;1.57;;;0.70;;
11498;SDS011;5806;48.748;9.278;2023-01-09T04:16:05;0.37;;;0.30;;
11498;SDS011;5806;48.748;9.278;2023-01-09T04:18:32;2.13;;;0.63;;
11498;SDS011;5806;48.748;9.278;2023-01-09T04:21:00;1.00;;;0.60;;
11498;SDS011;5806;48.748;9.278;2023-01-09T04:23:27;0.73;;;0.50;;
11498;SDS011;5806;48.748;9.278;2023-01-09T04:25:55;3.23;;;0.73;;
11498;SDS011;5806;48.748;9.278;2023-01-09T04:28:22;1.40;;;0.53;;
11498;SDS011;5806;48.748;9.278;2023-01-09T04:30:49;0.90;;;0.60;;
11498;SDS011;5806;48.748;9.278;2023-01-09T04:33:17;2.00;;;0.70;;
11498;SDS011;5806;48.748;9.278;2023-01-09T04:35:44;3.90;;;0.93;;
11498;SDS011;5806;48.748;9.278;2023-01-09T04:38:12;1.60;;;0.87;;
11498;SDS011;5806;48.748;9.278;2023-01-09T04:40:39;1.63;;;0.80;;
11498;SDS011;5806;48.748;9.278;2023-01-09T04:43:06;1.00;;;0.67;;
11498;SDS011;5806;48.748;9.278;2023-01-09T04:45:34;2.23;;;0.80;;
11498;SDS011;5806;48.748;9.278;2023-01-09T04:48:01;1.67;;;0.67;;
11498;SDS011;5806;48.748;9.278;2023-01-09T04:50:29;3.93;;;1.27;;
11498;SDS011;5806;48.748;9.278;2023-01-09T04:52:56;3.73;;;1.00;;
11498;SDS011;5806;48.748;9.278;2023-01-09T04:55:24;1.90;;;0.80;;
11498;SDS011;5806;48.748;9.278;2023-01-09T04:57:52;0.93;;;0.70;;
11498;SDS011;5806;48.748;9.278;2023-01-09T05:00:19;1.97;;;0.57;;
11498;SDS011;5806;48.748;9.278;2023-01-09T05:02:46;1.33;;;0.60;;
11498;SDS011;5806;48.748;9.278;2023-01-09T05:05:14;3.20;;;0.73;;
11498;SDS011;5806;48.748;9.278;2023-01-09T05:07:41;1.10;;;0.60;;
11498;SDS011;5806;48.748;9.278;2023-01-09T05:10:09;2.97;;;0.50;;
11498;SDS011;5806;48.748;9.278;2023-01-09T05:12:37;3.57;;;0.83;;
11498;SDS011;5806;48.748;9.278;2023-01-09T05:15:04;1.27;;;0.67;;
11498;SDS011;5806;48.748;9.278;2023-01-09T05:17:33;2.47;;;0.80;;
11498;SDS011;5806;48.748;9.278;2023-01-09T05:20:01;1.47;;;0.53;;
11498;SDS011;5806;48.748;9.278;2023-01-09T05:22:28;1.57;;;0.70;;
11498;SDS011;5806;48.748;9.278;2023-01-09T05:24:55;1.33;;;0.60;;
11498;SDS011;5806;48.748;9.278;2023-01-09T05:27:23;0.90;;;0.70;;
11498;SDS011;5806;48.748;9.278;2023-01-09T05:29:51;2.03;;;0.63;;
11498;SDS011;5806;48.748;9.278;2023-01-09T05:32:19;2.03;;;0.60;;
11498;SDS011;5806;48.748;9.278;2023-01-09T05:34:46;0.77;;;0.50;;
11498;SDS011;5806;48.748;9.278;2023-01-09T05:37:13;2.20;;;0.80;;
11498;SDS011;5806;48.748;9.278;2023-01-09T05:39:41;3.57;;;0.77;;
11498;SDS011;5806;48.748;9.278;2023-01-09T05:42:08;2.20;;;0.70;;
11498;SDS011;5806;48.748;9.278;2023-01-09T05:44:36;2.33;;;0.70;;
11498;SDS011;5806;48.748;9.278;2023-01-09T05:47:03;4.40;;;1.03;;
11498;SDS011;5806;48.748;9.278;2023-01-09T05:49:31;1.70;;;0.50;;
11498;SDS011;5806;48.748;9.278;2023-01-09T05:51:58;2.87;;;1.07;;
11498;SDS011;5806;48.748;9.278;2023-01-09T05:54:25;2.47;;;0.70;;
11498;SDS011;5806;48.748;9.278;2023-01-09T05:56:53;2.70;;;0.60;;
11498;SDS011;5806;48.748;9.278;2023-01-09T05:59:20;2.60;;;0.80;;
11498;SDS011;5806;48.748;9.278;2023-01-09T06:01:48;3.60;;;0.80;;
11498;SDS011;5806;48.748;9.278;2023-01-09T06:04:15;6.23;;;0.97;;
11498;SDS011;5806;48.748;9.278;2023-01-09T06:06:43;6.53;;;0.97;;
11498;SDS011;5806;48.748;9.278;2023-01-09T06:09:10;4.40;;;0.93;;
11498;SDS011;5806;48.748;9.278;2023-01-09T06:11:38;3.07;;;0.83;;
11498;SDS011;5806;48.748;9.278;2023-01-09T06:14:05;3.47;;;0.77;;
11498;SDS011;5806;48.748;9.278;2023-01-09T06:16:33;3.70;;;0.73;;
11498;SDS011;5806;48.748;9.278;2023-01-09T06:19:00;2.60;;;0.80;;
11498;SDS011;5806;48.748;9.278;2023-01-09T06:21:27;1.90;;;0.80;;
11498;SDS011;5806;48.748;9.278;2023-01-09T06:23:55;3.60;;;0.90;;
11498;SDS011;5806;48.748;9.278;2023-01-09T06:26:23;2.77;;;0.70;;
11498;SDS011;5806;48.748;9.278;2023-01-09T06:28:51;2.20;;;0.60;;
11498;SDS011;5806;48.748;9.278;2023-01-09T06:31:22;2.00;;;1.20;;
11498;SDS011;5806;48.748;9.278;2023-01-09T06:33:50;2.53;;;1.00;;
11498;SDS011;5806;48.748;9.278;2023-01-09T06:36:18;3.77;;;1.10;;
11498;SDS011;5806;48.748;9.278;2023-01-09T06:38:46;1.60;;;0.70;;
11498;SDS011;5806;48.748;9.278;2023-01-09T06:41:13;3.67;;;0.87;;
11498;SDS011;5806;48.748;9.278;2023-01-09T06:43:41;3.67;;;1.07;;
11498;SDS011;5806;48.748;9.278;2023-01-09T06:46:08;2.40;;;0.60;;
11498;SDS011;5806;48.748;9.278;2023-01-09T06:48:35;3.77;;;0.83;;
11498;SDS011;5806;48.748;9.278;2023-01-09T06:51:03;1.43;;;0.43;;
11498;SDS011;5806;48.748;9.278;2023-01-09T06:53:30;2.60;;;0.70;;
11498;SDS011;5806;48.748;9.278;2023-01-09T06:55:59;2.07;;;0.80;;
11498;SDS011;5806;48.748;9.278;2023-01-09T06:58:29;2.97;;;0.67;;
11498;SDS011;5806;48.748;9.278;2023-01-09T07:00:59;4.03;;;1.10;;
11498;SDS011;5806;48.748;9.278;2023-01-09T07:03:27;6.93;;;1.00;;
11498;SDS011;5806;48.748;9.278;2023-01-09T07:05:54;5.27;;;1.10;;
11498;SDS011;5806;48.748;9.278;2023-01-09T07:08:21;5.33;;;1.23;;
11498;SDS011;5806;48.748;9.278;2023-01-09T07:10:49;2.20;;;0.80;;
11498;SDS011;5806;48.748;9.278;2023-01-09T07:13:16;3.60;;;1.33;;
11498;SDS011;5806;48.748;9.278;2023-01-09T07:15:44;0.93;;;0.60;;
11498;SDS011;5806;48.748;9.278;2023-01-09T07:18:11;2.53;;;0.90;;
11498;SDS011;5806;48.748;9.278;2023-01-09T07:20:38;3.67;;;0.80;;
11498;SDS011;5806;48.748;9.278;2023-01-09T07:23:08;3.00;;;0.90;;
11498;SDS011;5806;48.748;9.278;2023-01-09T07:25:37;1.90;;;0.80;;
11498;SDS011;5806;48.748;9.278;2023-01-09T07:28:06;2.40;;;0.73;;
11498;SDS011;5806;48.748;9.278;2023-01-09T07:30:33;4.47;;;1.03;;
11498;SDS011;5806;48.748;9.278;2023-01-09T07:33:00;2.40;;;0.60;;
11498;SDS011;5806;48.748;9.278;2023-01-09T07:35:28;1.70;;;0.70;;
11498;SDS011;5806;48.748;9.278;2023-01-09T07:37:55;3.73;;;1.00;;
11498;SDS011;5806;48.748;9.278;2023-01-09T07:40:23;2.33;;;0.90;;
11498;SDS011;5806;48.748;9.278;2023-01-09T07:42:52;2.90;;;0.77;;
11498;SDS011;5806;48.748;9.278;2023-01-09T07:45:20;3.60;;;1.07;;
11498;SDS011;5806;48.748;9.278;2023-01-09T07:47:47;2.13;;;0.70;;
11498;SDS011;5806;48.748;9.278;2023-01-09T07:50:16;3.17;;;1.00;;
11498;SDS011;5806;48.748;9.278;2023-01-09T07:52:45;1.80;;;0.70;;
11498;SDS011;5806;48.748;9.278;2023-01-09T07:55:12;2.23;;;0.80;;
11498;SDS011;5806;48.748;9.278;2023-01-09T07:57:40;2.33;;;0.70;;
11498;SDS011;5806;48.748;9.278;2023-01-09T08:00:08;3.57;;;0.70;;
11498;SDS011;5806;48.748;9.278;2023-01-09T08:02:37;2.70;;;0.67;;
11498;SDS011;5806;48.748;9.278;2023-01-09T08:05:05;2.17;;;0.77;;
11498;SDS011;5806;48.748;9.278;2023-01-09T08:07:34;3.43;;;0.90;;
11498;SDS011;5806;48.748;9.278;2023-01-09T08:10:02;1.97;;;0.87;;
11498;SDS011;5806;48.748;9.278;2023-01-09T08:12:30;2.27;;;0.80;;
11498;SDS011;5806;48.748;9.278;2023-01-09T08:14:57;1.03;;;0.60;;
11498;SDS011;5806;48.748;9.278;2023-01-09T08:17:25;2.37;;;0.90;;
11498;SDS011;5806;48.748;9.278;2023-01-09T08:19:53;2.27;;;0.93;;
11498;SDS011;5806;48.748;9.278;2023-01-09T08:22:20;2.83;;;0.67;;
11498;SDS011;5806;48.748;9.278;2023-01-09T08:24:47;2.63;;;0.77;;
11498;SDS011;5806;48.748;9.278;2023-01-09T08:27:15;3.33;;;0.70;;
11498;SDS011;5806;48.748;9.278;2023-01-09T08:29:42;2.37;;;0.60;;
11498;SDS011;5806;48.748;9.278;2023-01-09T08:32:10;1.27;;;0.60;;
11498;SDS011;5806;48.748;9.278;2023-01-09T08:34:37;2.30;;;0.70;;
11498;SDS011;5806;48.748;9.278;2023-01-09T08:37:04;1.30;;;0.53;;
11498;SDS011;5806;48.748;9.278;2023-01-09T08:39:32;2.90;;;0.93;;
11498;SDS011;5806;48.748;9.278;2023-01-09T08:42:00;2.53;;;0.60;;
11498;SDS011;5806;48.748;9.278;2023-01-09T08:44:46;2.03;;;0.60;;
11498;SDS011;5806;48.748;9.278;2023-01-09T08:47:31;1.13;;;0.53;;
11498;SDS011;5806;48.748;9.278;2023-01-09T08:49:59;2.53;;;0.60;;
11498;SDS011;5806;48.748;9.278;2023-01-09T08:52:28;2.67;;;0.83;;
11498;SDS011;5806;48.748;9.278;2023-01-09T08:54:56;1.47;;;0.50;;
11498;SDS011;5806;48.748;9.278;2023-01-09T08:57:23;1.23;;;0.70;;
11498;SDS011;5806;48.748;9.278;2023-01-09T08:59:51;1.83;;;0.60;;
11498;SDS011;5806;48.748;9.278;2023-01-09T09:02:18;1.40;;;0.57;;
11498;SDS011;5806;48.748;9.278;2023-01-09T09:04:46;2.80;;;0.70;;
11498;SDS011;5806;48.748;9.278;2023-01-09T09:07:15;1.43;;;0.80;;
11498;SDS011;5806;48.748;9.278;2023-01-09T09:09:42;4.00;;;0.70;;
11498;SDS011;5806;48.748;9.278;2023-01-09T09:12:10;2.27;;;0.60;;
11498;SDS011;5806;48.748;9.278;2023-01-09T09:14:39;3.80;;;0.63;;
11498;SDS011;5806;48.748;9.278;2023-01-09T09:17:24;3.17;;;0.80;;
11498;SDS011;5806;48.748;9.278;2023-01-09T09:19:53;3.13;;;0.70;;
11498;SDS011;5806;48.748;9.278;2023-01-09T09:22:20;1.50;;;0.70;;
11498;SDS011;5806;48.748;9.278;2023-01-09T09:24:48;1.83;;;0.70;;
11498;SDS011;5806;48.748;9.278;2023-01-09T09:27:15;1.33;;;0.60;;
11498;SDS011;5806;48.748;9.278;2023-01-09T09:29:43;1.53;;;0.50;;
11498;SDS011;5806;48.748;9.278;2023-01-09T09:32:10;1.00;;;0.40;;
11498;SDS011;5806;48.748;9.278;2023-01-09T09:34:38;1.27;;;0.53;;
11498;SDS011;5806;48.748;9.278;2023-01-09T09:37:05;1.37;;;0.70;;
11498;SDS011;5806;48.748;9.278;2023-01-09T09:39:33;0.70;;;0.70;;
11498;SDS011;5806;48.748;9.278;2023-01-09T09:47:47;1.23;;;0.60;;
11498;SDS011;5806;48.748;9.278;2023-01-09T09:50:27;2.07;;;0.70;;
11498;SDS011;5806;48.748;9.278;2023-01-09T09:53:13;2.40;;;0.60;;
11498;SDS011;5806;48.748;9.278;2023-01-09T09:55:53;1.13;;;0.60;;
11498;SDS011;5806;48.748;9.278;2023-01-09T09:58:37;1.33;;;0.67;;
11498;SDS011;5806;48.748;9.278;2023-01-09T10:01:07;2.57;;;0.90;;
11498;SDS011;5806;48.748;9.278;2023-01-09T10:03:41;2.57;;;0.70;;
11498;SDS011;5806;48.748;9.278;2023-01-09T10:06:19;2.77;;;0.97;;
11498;SDS011;5806;48.748;9.278;2023-01-09T10:14:02;1.40;;;0.80;;
11498;SDS011;5806;48.748;9.278;2023-01-09T10:16:36;1.33;;;0.87;;
11498;SDS011;5806;48.748;9.278;2023-01-09T10:21:56;2.27;;;0.70;;
11498;SDS011;5806;48.748;9.278;2023-01-09T10:30:21;3.77;;;0.70;;
11498;SDS011;5806;48.748;9.278;2023-01-09T10:32:52;0.97;;;0.43;;
11498;SDS011;5806;48.748;9.278;2023-01-09T10:38:17;2.47;;;0.40;;
11498;SDS011;5806;48.748;9.278;2023-01-09T10:40:47;1.70;;;0.50;;
11498;SDS011;5806;48.748;9.278;2023-01-09T10:43:27;1.97;;;0.60;;
11498;SDS011;5806;48.748;9.278;2023-01-09T10:46:56;0.77;;;0.60;;
11498;SDS011;5806;48.748;9.278;2023-01-09T10:48:49;2.20;;;0.50;;
11498;SDS011;5806;48.748;9.278;2023-01-09T10:51:26;1.70;;;0.57;;
11498;SDS011;5806;48.748;9.278;2023-01-09T10:53:50;1.50;;;0.60;;
11498;SDS011;5806;48.748;9.278;2023-01-09T10:56:27;3.17;;;0.70;;
11498;SDS011;5806;48.748;9.278;2023-01-09T10:58:59;1.97;;;0.70;;
11498;SDS011;5806;48.748;9.278;2023-01-09T11:01:28;2.20;;;0.63;;
11498;SDS011;5806;48.748;9.278;2023-01-09T11:04:09;1.27;;;0.53;;
11498;SDS011;5806;48.748;9.278;2023-01-09T11:06:46;1.87;;;0.60;;
11498;SDS011;5806;48.748;9.278;2023-01-09T11:09:15;2.23;;;0.70;;
11498;SDS011;5806;48.748;9.278;2023-01-09T11:11:43;3.13;;;1.00;;
11498;SDS011;5806;48.748;9.278;2023-01-09T11:14:24;2.73;;;0.73;;
11498;SDS011;5806;48.748;9.278;2023-01-09T11:17:01;5.20;;;0.60;;
11498;SDS011;5806;48.748;9.278;2023-01-09T11:19:26;1.33;;;0.50;;
11498;SDS011;5806;48.748;9.278;2023-01-09T11:22:06;4.17;;;0.87;;
11498;SDS011;5806;48.748;9.278;2023-01-09T11:24:35;4.53;;;0.90;;
11498;SDS011;5806;48.748;9.278;2023-01-09T11:32:36;3.17;;;0.43;;
11498;SDS011;5806;48.748;9.278;2023-01-09T11:35:04;2.80;;;0.73;;
11498;SDS011;5806;48.748;9.278;2023-01-09T11:37:36;2.27;;;0.43;;
11498;SDS011;5806;48.748;9.278;2023-01-09T11:40:04;2.00;;;0.60;;
11498;SDS011;5806;48.748;9.278;2023-01-09T11:42:33;3.10;;;0.50;;
11498;SDS011;5806;48.748;9.278;2023-01-09T11:45:19;3.00;;;0.80;;
11498;SDS011;5806;48.748;9.278;2023-01-09T11:47:49;2.80;;;0.77;;
11498;SDS011;5806;48.748;9.278;2023-01-09T11:50:20;1.50;;;0.50;;
11498;SDS011;5806;48.748;9.278;2023-01-09T11:55:45;2.03;;;0.63;;
11498;SDS011;5806;48.748;9.278;2023-01-09T11:58:15;2.00;;;0.60;;
11498;SDS011;5806;48.748;9.278;2023-01-09T12:00:53;1.57;;;0.50;;
11498;SDS011;5806;48.748;9.278;2023-01-09T12:06:14;4.83;;;0.83;;
11498;SDS011;5806;48.748;9.278;2023-01-09T12:09:06;3.03;;;0.80;;
11498;SDS011;5806;48.748;9.278;2023-01-09T12:11:47;2.73;;;0.70;;
11498;SDS011;5806;48.748;9.278;2023-01-09T12:30:20;1.17;;;0.50;;
11498;SDS011;5806;48.748;9.278;2023-01-09T12:44:12;1.67;;;0.60;;
11498;SDS011;5806;48.748;9.278;2023-01-09T12:46:47;1.63;;;0.47;;
11498;SDS011;5806;48.748;9.278;2023-01-09T12:49:27;1.93;;;0.80;;
11498;SDS011;5806;48.748;9.278;2023-01-09T12:52:09;1.10;;;0.67;;
11498;SDS011;5806;48.748;9.278;2023-01-09T12:54:55;2.17;;;0.60;;
11498;SDS011;5806;48.748;9.278;2023-01-09T12:57:31;1.83;;;0.70;;
11498;SDS011;5806;48.748;9.278;2023-01-09T13:00:05;1.20;;;0.80;;
11498;SDS011;5806;48.748;9.278;2023-01-09T13:02:44;0.97;;;0.60;;
11498;SDS011;5806;48.748;9.278;2023-01-09T13:05:49;1.00;;;0.50;;
11498;SDS011;5806;48.748;9.278;2023-01-09T13:08:13;2.77;;;0.57;;
11498;SDS011;5806;48.748;9.278;2023-01-09T13:10:45;0.87;;;0.70;;
11498;SDS011;5806;48.748;9.278;2023-01-09T13:16:05;2.53;;;0.70;;
11498;SDS011;5806;48.748;9.278;2023-01-09T13:18:36;1.70;;;0.63;;
11498;SDS011;5806;48.748;9.278;2023-01-09T13:21:05;2.07;;;1.20;;
11498;SDS011;5806;48.748;9.278;2023-01-09T13:23:37;3.47;;;0.90;;
11498;SDS011;5806;48.748;9.278;2023-01-09T13:26:09;1.43;;;0.80;;
11498;SDS011;5806;48.748;9.278;2023-01-09T13:28:45;3.03;;;1.17;;
11498;SDS011;5806;48.748;9.278;2023-01-09T13:31:36;1.70;;;0.90;;
11498;SDS011;5806;48.748;9.278;2023-01-09T13:34:03;1.67;;;0.60;;
11498;SDS011;5806;48.748;9.278;2023-01-09T13:36:37;2.63;;;0.73;;
11498;SDS011;5806;48.748;9.278;2023-01-09T13:39:07;3.27;;;1.00;;
11498;SDS011;5806;48.748;9.278;2023-01-09T13:41:45;1.37;;;0.70;;
11498;SDS011;5806;48.748;9.278;2023-01-09T13:44:24;1.40;;;0.70;;
11498;SDS011;5806;48.748;9.278;2023-01-09T13:46:57;3.23;;;0.90;;
11498;SDS011;5806;48.748;9.278;2023-01-09T14:03:17;5.23;;;1.63;;
11498;SDS011;5806;48.748;9.278;2023-01-09T14:08:19;4.60;;;1.50;;
11498;SDS011;5806;48.748;9.278;2023-01-09T14:10:54;6.73;;;1.30;;
11498;SDS011;5806;48.748;9.278;2023-01-09T14:13:27;5.07;;;1.40;;
11498;SDS011;5806;48.748;9.278;2023-01-09T14:15:52;3.00;;;1.43;;
11498;SDS011;5806;48.748;9.278;2023-01-09T14:18:37;5.70;;;2.97;;
11498;SDS011;5806;48.748;9.278;2023-01-09T14:21:13;5.20;;;1.63;;
11498;SDS011;5806;48.748;9.278;2023-01-09T14:26:46;2.57;;;1.20;;
11498;SDS011;5806;48.748;9.278;2023-01-09T14:32:46;4.30;;;1.40;;
11498;SDS011;5806;48.748;9.278;2023-01-09T14:35:02;4.53;;;1.37;;
11498;SDS011;5806;48.748;9.278;2023-01-09T14:37:39;5.40;;;1.40;;
11498;SDS011;5806;48.748;9.278;2023-01-09T14:40:18;3.77;;;1.20;;
11498;SDS011;5806;48.748;9.278;2023-01-09T14:42:53;3.43;;;1.87;;
11498;SDS011;5806;48.748;9.278;2023-01-09T14:45:23;7.17;;;1.77;;
11498;SDS011;5806;48.748;9.278;2023-01-09T14:47:53;4.50;;;1.67;;
11498;SDS011;5806;48.748;9.278;2023-01-09T14:53:03;6.10;;;1.80;;
11498;SDS011;5806;48.748;9.278;2023-01-09T14:55:38;3.77;;;1.90;;
11498;SDS011;5806;48.748;9.278;2023-01-09T14:58:09;4.40;;;1.37;;
11498;SDS011;5806;48.748;9.278;2023-01-09T15:00:45;6.10;;;1.70;;
11498;SDS011;5806;48.748;9.278;2023-01-09T15:03:20;4.10;;;1.70;;
11498;SDS011;5806;48.748;9.278;2023-01-09T15:05:50;3.90;;;1.60;;
11498;SDS011;5806;48.748;9.278;2023-01-09T15:08:21;5.60;;;1.70;;
11498;SDS011;5806;48.748;9.278;2023-01-09T15:10:51;4.60;;;1.50;;
11498;SDS011;5806;48.748;9.278;2023-01-09T15:13:27;3.83;;;1.90;;
11498;SDS011;5806;48.748;9.278;2023-01-09T15:15:56;5.93;;;1.80;;
11498;SDS011;5806;48.748;9.278;2023-01-09T15:18:26;5.13;;;1.60;;
11498;SDS011;5806;48.748;9.278;2023-01-09T15:21:00;4.13;;;1.40;;
11498;SDS011;5806;48.748;9.278;2023-01-09T15:23:28;6.77;;;2.20;;
11498;SDS011;5806;48.748;9.278;2023-01-09T15:26:10;4.33;;;1.53;;
11498;SDS011;5806;48.748;9.278;2023-01-09T15:28:43;4.20;;;1.67;;
11498;SDS011;5806;48.748;9.278;2023-01-09T15:31:12;4.30;;;1.60;;
11498;SDS011;5806;48.748;9.278;2023-01-09T15:33:41;4.83;;;1.60;;
11498;SDS011;5806;48.748;9.278;2023-01-09T15:38:47;3.07;;;1.40;;
11498;SDS011;5806;48.748;9.278;2023-01-09T15:41:18;2.67;;;1.40;;
11498;SDS011;5806;48.748;9.278;2023-01-09T15:43:48;5.50;;;1.50;;
11498;SDS011;5806;48.748;9.278;2023-01-09T15:46:15;4.27;;;1.80;;
11498;SDS011;5806;48.748;9.278;2023-01-09T15:48:43;4.40;;;1.70;;
11498;SDS011;5806;48.748;9.278;2023-01-09T15:51:12;3.20;;;1.60;;
11498;SDS011;5806;48.748;9.278;2023-01-09T15:53:44;4.07;;;1.70;;
11498;SDS011;5806;48.748;9.278;2023-01-09T15:56:20;4.40;;;1.80;;
11498;SDS011;5806;48.748;9.278;2023-01-09T15:58:50;2.70;;;1.40;;
11498;SDS011;5806;48.748;9.278;2023-01-09T16:01:31;4.00;;;1.70;;
11498;SDS011;5806;48.748;9.278;2023-01-09T16:04:06;4.00;;;1.77;;
11498;SDS011;5806;48.748;9.278;2023-01-09T16:06:37;3.87;;;1.87;;
11498;SDS011;5806;48.748;9.278;2023-01-09T16:09:18;4.00;;;1.70;;
11498;SDS011;5806;48.748;9.278;2023-01-09T16:11:48;4.90;;;1.57;;
11498;SDS011;5806;48.748;9.278;2023-01-09T16:14:19;4.00;;;1.53;;
11498;SDS011;5806;48.748;9.278;2023-01-09T16:17:00;2.73;;;1.60;;
11498;SDS011;5806;48.748;9.278;2023-01-09T16:19:46;3.80;;;1.97;;
11498;SDS011;5806;48.748;9.278;2023-01-09T16:22:24;3.97;;;1.87;;
11498;SDS011;5806;48.748;9.278;2023-01-09T16:24:49;2.93;;;2.03;;
11498;SDS011;5806;48.748;9.278;2023-01-09T16:27:35;4.93;;;2.00;;
11498;SDS011;5806;48.748;9.278;2023-01-09T16:30:00;7.00;;;2.60;;
11498;SDS011;5806;48.748;9.278;2023-01-09T16:32:46;4.63;;;2.27;;
11498;SDS011;5806;48.748;9.278;2023-01-09T16:35:06;3.83;;;2.33;;
11498;SDS011;5806;48.748;9.278;2023-01-09T16:37:42;5.80;;;2.17;;
11498;SDS011;5806;48.748;9.278;2023-01-09T16:42:46;4.43;;;2.90;;
11498;SDS011;5806;48.748;9.278;2023-01-09T16:45:32;4.80;;;2.57;;
11498;SDS011;5806;48.748;9.278;2023-01-09T16:48:15;5.87;;;2.43;;
11498;SDS011;5806;48.748;9.278;2023-01-09T16:50:47;5.80;;;2.50;;
11498;SDS011;5806;48.748;9.278;2023-01-09T16:53:18;5.43;;;2.40;;
11498;SDS011;5806;48.748;9.278;2023-01-09T16:55:49;5.87;;;2.77;;
11498;SDS011;5806;48.748;9.278;2023-01-09T16:58:25;2.67;;;2.03;;
11498;SDS011;5806;48.748;9.278;2023-01-09T17:00:55;4.07;;;2.17;;
11498;SDS011;5806;48.748;9.278;2023-01-09T17:03:23;5.93;;;2.00;;
11498;SDS011;5806;48.748;9.278;2023-01-09T17:05:54;5.23;;;1.77;;
11498;SDS011;5806;48.748;9.278;2023-01-09T17:08:26;4.73;;;2.00;;
11498;SDS011;5806;48.748;9.278;2023-01-09T17:10:55;3.53;;;1.70;;
11498;SDS011;5806;48.748;9.278;2023-01-09T17:13:23;4.17;;;2.13;;
11498;SDS011;5806;48.748;9.278;2023-01-09T17:15:51;5.43;;;2.33;;
11498;SDS011;5806;48.748;9.278;2023-01-09T17:18:22;5.00;;;1.83;;